Time;durP1;ratioP1;P1;durP2;ratioP2;P2;SDS_P1;SDS_P2;PMS_P1;PMS_P2;Temp;Humidity;BMP_temperature;BMP_pressure;BME280_temperature;BME280_humidity;BME280_pressure;Samples;Min_cycle;Max_cycle;Signal;HPM_P1;HPM_P2
2023/01/11 00:04:39;;;;;;;2.25;0.85;;;;;;;7.92;73.34;100338.56;10276506;28;20093;-63
2023/01/11 00:09:40;;;;;;;8.85;0.95;;;;;;;7.86;73.40;100328.50;10280623;28;20746;-63
2023/01/11 00:14:42;;;;;;;9.15;1.20;;;;;;;7.87;73.47;100324.00;10286948;28;20166;-63
2023/01/11 00:19:43;;;;;;;5.43;0.43;;;;;;;7.97;73.25;100315.84;10275325;28;20467;-63
2023/01/11 00:24:44;;;;;;;5.22;0.70;;;;;;;8.00;74.06;100332.44;10281751;28;22038;-63
2023/01/11 00:29:46;;;;;;;5.22;0.50;;;;;;;7.97;73.43;100318.53;10276895;28;20133;-63
2023/01/11 00:34:47;;;;;;;2.80;0.45;;;;;;;8.05;73.44;100302.50;10273969;28;20143;-62
2023/01/11 00:39:50;;;;;;;4.97;1.05;;;;;;;8.07;74.03;100295.13;10278431;28;20055;-62
2023/01/11 00:50:11;;;;;;;11.70;0.82;;;;;;;8.17;73.76;100300.38;10268902;28;20134;-63
2023/01/11 00:55:13;;;;;;;2.47;0.82;;;;;;;8.25;73.53;100278.97;10278867;28;20134;-63
2023/01/11 01:00:14;;;;;;;5.72;1.40;;;;;;;8.31;73.68;100272.97;10288407;28;20142;-64
2023/01/11 01:05:17;;;;;;;7.05;0.82;;;;;;;8.33;73.26;100269.13;10286218;28;20142;-63
2023/01/11 01:10:19;;;;;;;6.00;1.90;;;;;;;8.36;73.12;100273.31;10276961;28;20097;-62
2023/01/11 01:15:20;;;;;;;4.82;0.50;;;;;;;8.43;73.36;100268.16;10280829;28;20399;-63
2023/01/11 01:20:23;;;;;;;5.45;0.82;;;;;;;8.42;73.41;100270.00;10282328;28;20054;-62
2023/01/11 01:25:24;;;;;;;2.00;0.40;;;;;;;8.38;72.91;100271.31;10282018;28;20070;-62
2023/01/11 01:30:26;;;;;;;1.65;0.70;;;;;;;8.44;73.45;100272.53;10270533;28;20150;-62
2023/01/11 01:35:27;;;;;;;7.65;0.85;;;;;;;8.34;73.42;100286.03;10289379;28;20085;-62
2023/01/11 01:40:29;;;;;;;3.88;1.20;;;;;;;8.37;73.48;100274.97;10282393;28;20078;-62
2023/01/11 01:45:30;;;;;;;9.05;1.30;;;;;;;8.37;73.27;100264.25;10289000;28;20109;-63
2023/01/11 01:50:55;;;;;;;7.63;0.60;;;;;;;8.33;73.74;100263.78;10288811;28;20092;-62
2023/01/11 01:56:00;;;;;;;7.65;0.60;;;;;;;8.29;74.17;100272.28;10283406;28;20174;-61
2023/01/11 02:01:45;;;;;;;8.60;0.70;;;;;;;8.35;74.12;100271.63;10281791;28;20133;-61
2023/01/11 02:06:24;;;;;;;5.88;0.52;;;;;;;8.37;74.17;100263.44;10277511;28;20071;-61
2023/01/11 02:11:29;;;;;;;4.18;0.68;;;;;;;8.40;73.81;100255.09;10277797;28;21118;-60
2023/01/11 02:16:30;;;;;;;6.35;0.77;;;;;;;8.40;74.07;100247.88;10275626;28;20502;-60
2023/01/11 02:22:03;;;;;;;5.80;0.82;;;;;;;8.33;74.56;100231.66;10282651;28;20082;-60
2023/01/11 02:27:32;;;;;;;5.03;0.75;;;;;;;8.44;74.19;100218.97;10280037;28;20109;-61
2023/01/11 02:32:45;;;;;;;7.03;1.13;;;;;;;8.42;74.43;100211.09;10279096;28;20379;-61
2023/01/11 02:38:32;;;;;;;4.80;0.85;;;;;;;8.44;74.84;100203.72;10288676;28;20130;-60
2023/01/11 02:49:35;;;;;;;4.25;0.70;;;;;;;8.56;74.50;100203.41;10281816;28;20134;-61
2023/01/11 02:54:41;;;;;;;8.40;1.02;;;;;;;8.44;75.10;100202.91;10276129;28;20121;-62
2023/01/11 02:59:47;;;;;;;5.00;0.65;;;;;;;8.44;75.19;100195.69;10283494;28;20571;-60
2023/01/11 03:04:49;;;;;;;3.90;0.82;;;;;;;8.45;75.11;100181.31;10286292;28;20082;-60
2023/01/11 03:09:56;;;;;;;6.28;1.45;;;;;;;8.42;76.02;100176.25;10280535;28;20148;-59
2023/01/11 03:15:06;;;;;;;13.45;2.35;;;;;;;8.47;75.38;100165.91;10284532;28;20129;-60
2023/01/11 03:20:34;;;;;;;4.53;1.13;;;;;;;8.52;75.62;100150.16;10280550;28;20130;-61
2023/01/11 03:25:49;;;;;;;5.73;0.70;;;;;;;8.62;75.61;100149.97;10283575;28;20134;-60
2023/01/11 03:31:01;;;;;;;4.53;1.00;;;;;;;8.62;75.60;100141.94;10281586;28;20047;-60
2023/01/11 03:36:21;;;;;;;5.57;1.77;;;;;;;8.61;76.04;100147.47;10287037;28;20046;-60
2023/01/11 03:41:26;;;;;;;9.10;1.48;;;;;;;8.59;75.86;100130.72;10280180;28;20137;-60
2023/01/11 03:46:37;;;;;;;8.82;0.80;;;;;;;8.62;76.34;100117.81;10280543;28;20561;-60
2023/01/11 03:51:44;;;;;;;5.78;1.20;;;;;;;8.62;76.14;100115.16;10278846;28;20481;-61
2023/01/11 03:57:01;;;;;;;17.90;2.70;;;;;;;8.73;76.33;100120.16;10275554;28;20078;-60
2023/01/11 04:02:02;;;;;;;47.33;10.57;;;;;;;8.81;76.48;100113.13;10280048;28;20080;-61
2023/01/11 04:07:03;;;;;;;10.90;2.33;;;;;;;8.89;76.19;100105.91;10283655;28;20592;-60
2023/01/11 04:12:05;;;;;;;5.18;0.70;;;;;;;8.99;75.66;100100.34;10282450;28;20137;-60
2023/01/11 04:17:06;;;;;;;4.90;0.90;;;;;;;8.97;76.18;100091.63;10276375;28;20137;-61
2023/01/11 04:22:08;;;;;;;4.75;0.65;;;;;;;8.93;76.19;100088.47;10277131;28;20093;-61
2023/01/11 04:27:09;;;;;;;8.73;0.73;;;;;;;9.00;76.67;100069.00;10282183;28;20601;-62
2023/01/11 04:32:10;;;;;;;4.50;0.98;;;;;;;9.00;76.88;100060.97;10283849;28;20109;-60
2023/01/11 04:37:12;;;;;;;1.95;0.52;;;;;;;9.03;76.49;100068.66;10294091;28;20490;-59
2023/01/11 04:42:19;;;;;;;1.40;0.50;;;;;;;9.01;77.21;100058.13;10281865;28;20077;-60
2023/01/11 04:47:22;;;;;;;9.10;1.70;;;;;;;9.06;76.91;100069.16;10286610;28;20051;-60
2023/01/11 04:52:23;;;;;;;6.22;0.90;;;;;;;9.19;76.71;100059.72;10289707;28;20081;-60
2023/01/11 04:57:25;;;;;;;3.35;1.42;;;;;;;9.19;77.06;100055.19;10280349;28;20098;-60
2023/01/11 05:02:26;;;;;;;6.53;0.90;;;;;;;9.19;77.17;100043.63;10281533;28;20082;-59
2023/01/11 05:07:27;;;;;;;6.15;1.27;;;;;;;9.21;77.59;100039.75;10282304;28;20078;-59
2023/01/11 05:12:29;;;;;;;10.45;1.15;;;;;;;9.26;77.53;100029.34;10293166;28;20158;-59
2023/01/11 05:17:30;;;;;;;2.42;1.20;;;;;;;9.30;77.75;100033.34;10286247;28;20138;-60
2023/01/11 05:22:31;;;;;;;6.18;1.23;;;;;;;9.35;77.48;100024.78;10290270;28;20146;-61
2023/01/11 05:27:33;;;;;;;6.70;1.90;;;;;;;9.44;77.77;100014.81;10283336;28;20054;-61
2023/01/11 05:32:34;;;;;;;7.63;1.48;;;;;;;9.52;77.76;100006.75;10286123;28;20058;-60
2023/01/11 05:37:37;;;;;;;4.50;2.10;;;;;;;9.56;77.73;99999.16;10280409;28;20134;-62
2023/01/11 05:42:38;;;;;;;4.40;2.25;;;;;;;9.58;77.75;99997.13;10269580;28;20071;-60
2023/01/11 05:47:39;;;;;;;5.95;2.85;;;;;;;9.59;78.08;100006.84;10274938;28;20557;-60
2023/01/11 05:52:41;;;;;;;4.82;3.53;;;;;;;9.73;77.71;99987.28;10283278;28;20138;-61
2023/01/11 05:57:43;;;;;;;6.22;3.45;;;;;;;9.72;77.97;99986.47;10286839;28;20493;-62
2023/01/11 06:02:45;;;;;;;9.48;4.20;;;;;;;9.76;78.14;99976.22;10276851;28;20173;-60
2023/01/11 06:07:46;;;;;;;5.65;2.83;;;;;;;9.76;78.33;99978.88;10281274;28;20050;-60
2023/01/11 06:13:25;;;;;;;3.90;1.48;;;;;;;9.79;78.27;99959.72;10284188;28;20137;-60
2023/01/11 06:18:12;;;;;;;4.90;1.60;;;;;;;9.77;78.48;99969.81;10278225;28;20047;-60
2023/01/11 06:23:14;;;;;;;4.55;1.70;;;;;;;9.75;78.63;99971.00;10275439;28;20154;-61
2023/01/11 06:28:16;;;;;;;5.72;1.83;;;;;;;9.71;78.72;99955.25;10278528;28;20070;-59
2023/01/11 06:33:18;;;;;;;8.10;1.83;;;;;;;9.75;78.48;99957.59;10282506;28;20142;-59
2023/01/11 06:38:21;;;;;;;4.80;1.70;;;;;;;9.72;78.57;99938.16;10278779;28;21036;-60
2023/01/11 06:43:23;;;;;;;3.47;2.28;;;;;;;9.70;78.84;99948.22;10280461;28;20134;-62
2023/01/11 06:48:25;;;;;;;9.52;2.85;;;;;;;9.67;78.93;99950.44;10286065;28;20082;-60
2023/01/11 06:53:27;;;;;;;5.50;3.30;;;;;;;9.59;79.25;99942.44;10281662;28;20061;-59
2023/01/11 06:58:29;;;;;;;4.68;3.42;;;;;;;9.57;79.47;99934.56;10280318;28;20576;-60
2023/01/11 07:03:31;;;;;;;8.07;3.65;;;;;;;9.56;79.44;99938.28;10277475;28;20644;-61
2023/01/11 07:08:32;;;;;;;8.25;3.28;;;;;;;9.55;79.70;99950.03;10284587;28;20535;-61
2023/01/11 07:13:34;;;;;;;8.30;3.67;;;;;;;9.52;79.87;99948.53;10281708;28;20050;-62
2023/01/11 07:18:36;;;;;;;7.63;3.60;;;;;;;9.56;79.90;99948.16;10270692;28;20142;-60
2023/01/11 07:23:37;;;;;;;6.90;4.18;;;;;;;9.60;79.82;99961.06;10279082;28;20082;-64
2023/01/11 07:28:38;;;;;;;6.20;4.28;;;;;;;9.58;80.03;99960.41;10275534;28;20077;-63
2023/01/11 07:33:40;;;;;;;7.20;3.95;;;;;;;9.61;80.13;99960.03;10284688;28;20149;-63
2023/01/11 07:38:41;;;;;;;8.50;4.00;;;;;;;9.71;79.82;99968.66;10284138;28;20057;-62
2023/01/11 07:43:42;;;;;;;6.55;4.35;;;;;;;9.78;79.94;99970.66;10277050;28;20070;-63
2023/01/11 07:48:44;;;;;;;10.30;4.57;;;;;;;9.75;79.92;99969.16;10282262;28;20110;-63
2023/01/11 07:53:45;;;;;;;9.75;4.88;;;;;;;9.78;80.21;99984.09;10281377;28;20082;-62
2023/01/11 07:58:47;;;;;;;8.30;5.15;;;;;;;9.71;80.22;99968.66;10278589;28;20108;-62
2023/01/11 08:03:49;;;;;;;10.65;5.00;;;;;;;9.75;80.25;99960.28;10275692;28;20082;-65
2023/01/11 08:08:50;;;;;;;11.48;4.90;;;;;;;9.70;80.46;99964.34;10283335;28;20472;-62
2023/01/11 08:19:11;;;;;;;6.40;3.85;;;;;;;9.87;80.36;99961.50;10285411;28;20059;-62
2023/01/11 08:24:13;;;;;;;8.98;3.92;;;;;;;9.90;80.29;99964.66;10278761;28;20078;-63
2023/01/11 08:29:14;;;;;;;10.23;4.43;;;;;;;9.85;80.38;99955.47;10278614;28;20141;-63
2023/01/11 08:34:15;;;;;;;6.97;4.03;;;;;;;9.82;80.43;99948.63;10273994;28;20062;-63
2023/01/11 08:39:17;;;;;;;7.97;4.40;;;;;;;9.88;80.47;99949.75;10265350;28;20050;-63
2023/01/11 08:44:18;;;;;;;6.05;4.07;;;;;;;9.96;80.29;99952.38;10268974;28;20158;-61
2023/01/11 08:49:34;;;;;;;14.65;5.18;;;;;;;10.04;80.17;99952.28;10279272;28;20053;-63
2023/01/11 08:54:35;;;;;;;9.38;5.80;;;;;;;10.05;80.20;99955.81;10284628;28;20097;-63
2023/01/11 08:59:37;;;;;;;9.13;4.47;;;;;;;10.03;80.47;99955.16;10274545;28;20469;-60
2023/01/11 09:04:38;;;;;;;7.05;4.10;;;;;;;10.12;80.38;99952.22;10279592;28;20057;-60
2023/01/11 09:09:40;;;;;;;10.20;4.20;;;;;;;10.10;80.69;99956.94;10263471;28;20484;-62
2023/01/11 09:14:41;;;;;;;9.73;3.95;;;;;;;10.15;80.71;99956.41;10280876;28;20058;-62
2023/01/11 09:19:43;;;;;;;6.05;3.95;;;;;;;10.18;80.71;99956.03;10288809;28;20465;-62
2023/01/11 09:24:44;;;;;;;15.50;6.18;;;;;;;10.22;80.73;99946.56;10277318;28;20138;-61
2023/01/11 09:29:45;;;;;;;9.38;3.60;;;;;;;10.27;80.70;99940.66;10282845;28;20145;-61
2023/01/11 09:34:48;;;;;;;7.35;3.88;;;;;;;10.26;81.00;99955.09;10294159;28;20557;-62
2023/01/11 09:39:51;;;;;;;7.63;3.78;;;;;;;10.33;80.91;99958.78;10284271;28;20058;-62
2023/01/11 09:44:56;;;;;;;20.25;3.65;;;;;;;10.30;81.04;99964.50;10295055;28;20085;-62
2023/01/11 09:50:01;;;;;;;12.98;4.03;;;;;;;10.39;81.11;99971.47;10283063;28;20700;-61
2023/01/11 09:55:03;;;;;;;10.82;3.92;;;;;;;10.42;81.04;99975.63;10286394;28;20085;-63
2023/01/11 10:00:34;;;;;;;5.50;3.10;;;;;;;10.37;81.20;99967.28;10287216;28;20089;-61
2023/01/11 10:05:50;;;;;;;7.63;3.70;;;;;;;10.37;81.43;99956.53;10265004;28;20053;-63
2023/01/11 10:11:05;;;;;;;5.85;2.88;;;;;;;10.48;81.15;99962.28;10280650;28;20098;-67
2023/01/11 10:17:11;;;;;;;4.95;2.47;;;;;;;10.47;81.13;99949.88;10277660;28;20055;-67
2023/01/11 10:22:42;;;;;;;4.10;2.70;;;;;;;10.49;81.21;99960.44;10290772;28;20066;-67
2023/01/11 10:28:00;;;;;;;9.13;3.25;;;;;;;10.56;81.29;99961.34;10292219;28;20133;-66
2023/01/11 10:33:24;;;;;;;4.28;2.88;;;;;;;10.51;81.46;99956.53;10282013;28;20057;-66
2023/01/11 10:39:02;;;;;;;6.85;3.10;;;;;;;10.59;81.61;99961.00;10275816;28;20085;-66
2023/01/11 10:44:17;;;;;;;10.38;3.40;;;;;;;10.59;81.41;99973.59;10282176;28;20390;-66
2023/01/11 10:49:42;;;;;;;6.60;3.63;;;;;;;10.68;81.41;99983.22;10273532;28;20143;-66
2023/01/11 10:54:49;;;;;;;6.70;4.43;;;;;;;10.68;81.47;99991.28;10264155;28;20489;-66
2023/01/11 11:00:04;;;;;;;7.25;4.20;;;;;;;10.71;81.78;99990.94;10278640;28;20490;-66
2023/01/11 11:05:18;;;;;;;6.10;4.03;;;;;;;10.69;81.83;99983.03;10284846;28;20778;-66
2023/01/11 11:10:49;;;;;;;7.28;4.57;;;;;;;10.73;81.90;99983.50;10280886;28;20074;-66
2023/01/11 11:16:15;;;;;;;9.63;4.53;;;;;;;10.74;81.98;99962.84;10281753;28;20055;-67
2023/01/11 11:21:30;;;;;;;8.18;4.60;;;;;;;10.80;81.89;99962.06;10277913;28;20050;-66
2023/01/11 11:26:38;;;;;;;7.90;4.78;;;;;;;10.93;81.88;99938.06;10283562;28;20075;-65
2023/01/11 11:31:45;;;;;;;9.30;4.65;;;;;;;11.00;81.65;99930.91;10280556;28;20050;-67
2023/01/11 11:36:48;;;;;;;;;;;;;;;11.07;81.87;99929.09;10287029;28;20044;-66
2023/01/11 11:41:52;;;;;;;6.90;4.10;;;;;;;11.09;81.67;99934.31;10286515;28;20372;-67
2023/01/11 11:47:00;;;;;;;4.30;2.97;;;;;;;11.14;82.17;99922.97;10283694;28;20065;-67
2023/01/11 11:52:04;;;;;;;2.75;1.90;;;;;;;11.18;82.10;99932.34;10288156;28;20075;-67
2023/01/11 11:57:21;;;;;;;2.78;1.73;;;;;;;11.18;82.60;99932.34;10281169;28;20057;-67
2023/01/11 12:02:27;;;;;;;2.10;1.63;;;;;;;11.32;82.12;99943.06;10291427;28;20059;-66
2023/01/11 12:07:36;;;;;;;2.85;1.30;;;;;;;11.41;82.03;99957.19;10279132;28;20051;-66
2023/01/11 12:12:56;;;;;;;3.58;1.25;;;;;;;11.44;81.96;99961.41;10295113;28;20101;-65
2023/01/11 12:18:27;;;;;;;3.13;1.60;;;;;;;11.42;82.31;99976.91;10290319;28;20078;-64
2023/01/11 12:23:28;;;;;;;1.63;1.52;;;;;;;11.55;81.72;99974.31;10282878;28;20117;-64
2023/01/11 12:28:52;;;;;;;1.58;1.45;;;;;;;11.54;81.76;99975.38;10279171;28;20401;-65
2023/01/11 12:34:12;;;;;;;3.88;1.50;;;;;;;11.68;81.64;99968.25;10285120;28;20522;-65
2023/01/11 12:39:20;;;;;;;1.67;1.55;;;;;;;11.71;81.65;99960.63;10279277;28;20050;-65
2023/01/11 12:45:06;;;;;;;6.20;1.90;;;;;;;11.74;81.22;99963.97;10267452;28;20160;-65
2023/01/11 12:50:21;;;;;;;3.67;2.10;;;;;;;11.83;80.93;99981.66;10277950;28;20058;-65
2023/01/11 12:55:40;;;;;;;3.70;1.77;;;;;;;11.93;81.38;99973.25;10286300;28;20093;-66
2023/01/11 13:00:54;;;;;;;3.25;1.73;;;;;;;12.00;81.12;99985.75;10294151;28;20509;-65
2023/01/11 13:06:22;;;;;;;5.95;1.48;;;;;;;12.04;80.92;99992.41;10296805;28;20050;-63
2023/01/11 13:11:36;;;;;;;2.47;1.45;;;;;;;12.05;80.96;100004.03;10291206;28;20039;-65
2023/01/11 13:16:50;;;;;;;2.78;1.33;;;;;;;12.07;80.94;100002.00;10292967;28;20989;-66
2023/01/11 13:21:54;;;;;;;3.15;1.10;;;;;;;12.17;80.73;99991.72;10290127;28;20141;-65
2023/01/11 13:27:10;;;;;;;5.15;1.48;;;;;;;12.23;80.42;100009.78;10289150;28;20463;-66
2023/01/11 13:32:17;;;;;;;4.63;1.10;;;;;;;12.39;80.29;99999.75;10274358;28;20419;-66
2023/01/11 13:37:41;;;;;;;1.75;1.00;;;;;;;12.43;79.77;99999.16;10293908;28;20113;-66
2023/01/11 13:42:49;;;;;;;2.50;0.80;;;;;;;12.46;80.19;100004.16;10282903;28;20570;-64
2023/01/11 13:47:55;;;;;;;2.35;0.95;;;;;;;12.45;79.69;100009.75;10289078;28;20389;-66
2023/01/11 13:53:27;;;;;;;4.28;0.73;;;;;;;12.48;79.88;100001.28;10276766;28;20059;-66
2023/01/11 13:58:41;;;;;;;1.90;1.10;;;;;;;12.54;79.29;100022.06;10277035;28;20054;-64
2023/01/11 14:03:54;;;;;;;2.70;0.88;;;;;;;12.40;79.73;100029.22;10293337;28;20054;-65
2023/01/11 14:09:09;;;;;;;1.13;0.73;;;;;;;12.28;80.12;100023.53;10272214;28;20145;-66
2023/01/11 14:14:25;;;;;;;1.27;0.50;;;;;;;12.23;80.54;100039.44;10279475;28;20054;-65
2023/01/11 14:19:39;;;;;;;1.55;0.85;;;;;;;12.18;80.63;100030.25;10282303;28;20166;-66
2023/01/11 14:25:06;;;;;;;2.33;0.90;;;;;;;12.20;79.85;100042.50;10275513;28;20122;-66
2023/01/11 14:30:37;;;;;;;4.10;0.60;;;;;;;12.20;80.06;100058.66;10285892;28;20134;-65
2023/01/11 14:35:57;;;;;;;1.92;1.02;;;;;;;12.17;79.93;100061.75;10281414;28;20510;-65
2023/01/11 14:41:24;;;;;;;2.00;1.20;;;;;;;12.16;79.66;100086.19;10281690;28;20154;-66
2023/01/11 14:46:45;;;;;;;2.75;1.23;;;;;;;12.13;79.52;100092.81;10276745;28;20158;-65
2023/01/11 14:52:06;;;;;;;2.30;0.70;;;;;;;12.06;79.98;100100.00;10281180;28;20051;-66
2023/01/11 14:57:35;;;;;;;1.75;0.50;;;;;;;11.89;79.59;100118.28;10271875;28;20130;-67
2023/01/11 15:02:36;;;;;;;3.10;0.50;;;;;;;11.76;79.85;100140.44;10280006;28;20149;-67
2023/01/11 15:07:40;;;;;;;7.75;1.38;;;;;;;11.67;78.96;100157.72;10281630;28;20050;-67
2023/01/11 15:12:42;;;;;;;11.63;1.60;;;;;;;11.48;78.48;100157.28;10271120;28;20170;-66
2023/01/11 15:23:04;;;;;;;6.47;0.50;;;;;;;11.44;76.88;100174.00;10279492;28;20570;-66
2023/01/11 15:28:41;;;;;;;7.53;0.80;;;;;;;11.45;75.73;100184.59;10277558;28;20042;-66
2023/01/11 15:33:47;;;;;;;5.25;1.10;;;;;;;11.41;75.06;100194.03;10286675;28;20109;-65
2023/01/11 15:39:06;;;;;;;5.78;0.82;;;;;;;11.48;74.61;100202.22;10284727;28;20057;-66
2023/01/11 15:44:47;;;;;;;11.50;1.25;;;;;;;11.43;74.62;100213.56;10199807;28;20496;-66
2023/01/11 15:50:09;;;;;;;7.22;0.40;;;;;;;11.35;74.02;100223.56;10201152;29;20138;-66
2023/01/11 15:55:48;;;;;;;8.63;0.77;;;;;;;11.39;73.01;100220.31;10202148;28;20058;-65
2023/01/11 16:01:08;;;;;;;;;;;;;;;11.40;74.23;100216.59;10196998;28;20140;-66
2023/01/11 16:06:19;;;;;;;6.35;0.70;;;;;;;11.34;73.88;100213.84;10199484;28;19945;-66
2023/01/11 16:11:53;;;;;;;6.72;0.73;;;;;;;11.26;73.20;100220.97;10218153;28;20087;-65
2023/01/11 16:16:55;;;;;;;6.15;0.90;;;;;;;11.22;73.35;100226.91;10196143;28;20106;-60
2023/01/11 16:22:00;;;;;;;4.43;0.80;;;;;;;11.17;73.50;100234.66;10206060;28;20379;-61
2023/01/11 16:27:03;;;;;;;7.45;0.82;;;;;;;11.15;73.09;100228.63;10197563;28;20138;-61
2023/01/11 16:32:06;;;;;;;4.47;0.85;;;;;;;11.13;72.92;100236.06;10208351;28;20114;-61
2023/01/11 16:37:21;;;;;;;4.47;1.38;;;;;;;11.05;72.33;100245.88;10212680;28;20185;-61
2023/01/11 16:42:28;;;;;;;5.55;0.70;;;;;;;10.95;72.77;100249.84;10203356;28;20059;-62
2023/01/11 16:47:29;;;;;;;12.25;1.77;;;;;;;10.91;72.38;100254.72;10204510;28;20052;-61
2023/01/11 16:52:36;;;;;;;7.80;0.98;;;;;;;10.84;72.39;100269.91;10211830;28;20079;-61
2023/01/11 16:57:42;;;;;;;11.82;1.45;;;;;;;10.73;72.55;100276.56;10211538;28;20114;-61
2023/01/11 17:02:47;;;;;;;8.27;1.00;;;;;;;10.71;72.15;100278.59;10203309;28;20478;-62
2023/01/11 17:07:49;;;;;;;5.95;1.05;;;;;;;10.61;72.57;100283.34;10206422;28;20062;-61
2023/01/11 17:13:50;;;;;;;8.80;1.02;;;;;;;10.47;72.48;100299.22;10214734;28;20463;-61
2023/01/11 17:18:39;;;;;;;2.83;0.70;;;;;;;10.44;72.43;100304.09;10210468;29;20048;-62
2023/01/11 17:23:42;;;;;;;5.78;1.23;;;;;;;10.32;72.52;100309.03;10201601;28;20115;-61
2023/01/11 17:28:46;;;;;;;8.88;0.68;;;;;;;10.17;72.93;100326.88;10207103;28;20489;-62
2023/01/11 17:33:58;;;;;;;5.70;1.13;;;;;;;10.04;73.32;100339.00;10199659;29;20114;-61
2023/01/11 17:39:00;;;;;;;9.10;1.13;;;;;;;9.99;73.49;100345.91;10206191;28;20060;-61
2023/01/11 17:49:24;;;;;;;3.60;0.80;;;;;;;9.95;73.93;100360.69;10196147;28;20099;-61
2023/01/11 17:54:26;;;;;;;10.70;1.00;;;;;;;9.91;73.84;100355.66;10209766;29;20052;-61
2023/01/11 17:59:29;;;;;;;16.52;1.27;;;;;;;9.91;73.88;100363.72;10198907;28;20059;-62
2023/01/11 18:04:31;;;;;;;6.38;1.20;;;;;;;9.92;73.67;100368.06;10204068;28;20067;-63
2023/01/11 18:09:36;;;;;;;12.35;1.70;;;;;;;9.91;73.72;100377.16;10187352;28;20075;-61
2023/01/11 18:14:45;;;;;;;16.08;1.73;;;;;;;9.89;73.55;100395.28;10209381;28;20079;-62
2023/01/11 18:19:46;;;;;;;9.38;1.08;;;;;;;9.88;73.71;100401.63;10202640;29;20107;-61
2023/01/11 18:24:52;;;;;;;8.55;1.70;;;;;;;9.85;73.94;100402.00;10201503;28;20075;-62
2023/01/11 18:29:56;;;;;;;12.52;1.60;;;;;;;9.76;74.08;100405.69;10202526;28;20146;-62
2023/01/11 18:34:57;;;;;;;8.93;1.15;;;;;;;9.76;73.74;100411.06;10200838;28;20051;-61
2023/01/11 18:40:00;;;;;;;9.05;1.20;;;;;;;9.68;74.01;100419.94;10200836;28;20122;-65
2023/01/11 18:45:01;;;;;;;13.23;1.48;;;;;;;9.62;74.29;100414.44;10199832;28;20525;-64
2023/01/11 18:50:03;;;;;;;9.57;1.90;;;;;;;9.60;74.34;100413.75;10206702;28;20089;-62
2023/01/11 18:55:05;;;;;;;12.63;2.25;;;;;;;9.56;74.33;100407.03;10203900;28;20106;-63
2023/01/11 19:00:09;;;;;;;11.32;2.28;;;;;;;9.52;74.25;100423.47;10197890;29;20147;-63
2023/01/11 19:05:12;;;;;;;10.15;1.20;;;;;;;9.50;74.25;100430.03;10193762;28;20647;-61
2023/01/11 19:10:18;;;;;;;8.48;1.02;;;;;;;9.45;74.39;100429.69;10197944;28;20143;-62
2023/01/11 19:15:19;;;;;;;15.18;1.80;;;;;;;9.43;74.47;100431.69;10197613;28;20060;-62
2023/01/11 19:20:20;;;;;;;10.38;1.73;;;;;;;9.37;74.49;100445.78;10192379;28;20490;-62
2023/01/11 19:25:22;;;;;;;5.90;1.00;;;;;;;9.30;74.62;100467.91;10205325;28;20169;-61
2023/01/11 19:30:23;;;;;;;9.77;1.40;;;;;;;9.28;74.62;100472.59;10200216;29;20158;-62
2023/01/11 19:35:25;;;;;;;9.52;1.50;;;;;;;9.30;74.63;100464.34;10203745;28;20134;-64
2023/01/11 19:40:26;;;;;;;9.38;1.67;;;;;;;9.27;74.53;100462.84;10199372;28;20146;-62
2023/01/11 19:45:27;;;;;;;6.45;1.25;;;;;;;9.29;74.43;100473.41;10201751;28;20493;-64
2023/01/11 19:50:29;;;;;;;6.05;1.08;;;;;;;9.23;74.33;100474.09;10199799;28;20094;-62
2023/01/11 19:55:30;;;;;;;6.88;0.80;;;;;;;9.22;74.55;100465.19;10196893;28;20139;-61
2023/01/11 20:00:31;;;;;;;8.30;1.35;;;;;;;9.21;74.51;100451.94;10198255;29;20529;-60
2023/01/11 20:05:33;;;;;;;10.35;1.30;;;;;;;9.23;74.31;100450.78;10204603;28;20399;-61
2023/01/11 20:10:34;;;;;;;4.55;0.88;;;;;;;9.19;74.29;100451.28;10198907;28;20055;-62
2023/01/11 20:15:37;;;;;;;13.25;1.55;;;;;;;9.19;74.38;100444.06;10198344;28;20051;-61
2023/01/11 20:20:38;;;;;;;6.30;1.77;;;;;;;9.17;74.38;100438.03;10204408;28;20122;-62
2023/01/11 20:25:40;;;;;;;11.05;0.75;;;;;;;9.11;74.51;100455.59;10211765;28;20235;-61
2023/01/11 20:30:41;;;;;;;8.82;1.10;;;;;;;9.08;74.49;100465.81;10194704;28;20040;-61
2023/01/11 20:35:44;;;;;;;14.95;1.45;;;;;;;9.09;74.24;100478.22;10195572;28;20071;-63
2023/01/11 20:40:45;;;;;;;12.88;1.30;;;;;;;9.07;74.55;100477.56;10194426;28;20059;-61
2023/01/11 20:45:55;;;;;;;6.40;1.35;;;;;;;9.03;73.99;100469.00;10206323;28;20509;-61
2023/01/11 20:50:59;;;;;;;10.45;1.00;;;;;;;9.03;73.96;100450.22;10187761;29;20054;-61
2023/01/11 20:56:04;;;;;;;8.82;1.58;;;;;;;8.96;74.19;100443.81;10193303;28;20570;-62
2023/01/11 21:01:07;;;;;;;10.73;1.90;;;;;;;8.91;74.17;100425.56;10196135;28;20067;-62
2023/01/11 21:06:09;;;;;;;9.20;1.15;;;;;;;8.83;74.76;100414.00;10196648;28;20075;-63
2023/01/11 21:11:14;;;;;;;7.82;1.10;;;;;;;8.79;74.75;100400.06;10203491;29;20051;-62
2023/01/11 21:16:16;;;;;;;9.32;1.25;;;;;;;8.79;74.36;100418.84;10206981;28;20076;-62
2023/01/11 21:21:18;;;;;;;8.73;0.80;;;;;;;8.78;74.54;100410.94;10204878;28;20118;-62
2023/01/11 21:26:19;;;;;;;7.13;0.90;;;;;;;8.76;74.53;100421.81;10200830;28;20051;-61
2023/01/11 21:31:21;;;;;;;9.88;1.27;;;;;;;8.77;75.02;100418.16;10208366;28;20138;-62
2023/01/11 21:36:25;;;;;;;6.43;0.82;;;;;;;8.82;74.61;100409.63;10209178;28;20139;-61
2023/01/11 21:46:49;;;;;;;5.68;0.95;;;;;;;8.76;74.71;100399.56;10204153;28;20473;-61
2023/01/11 21:51:51;;;;;;;4.88;0.98;;;;;;;8.75;75.15;100409.44;10205127;28;20047;-63
2023/01/11 21:56:52;;;;;;;7.20;0.77;;;;;;;8.77;74.96;100411.94;10207541;28;20133;-62
2023/01/11 22:01:54;;;;;;;6.65;0.98;;;;;;;8.76;75.00;100416.47;10211774;28;20607;-61
2023/01/11 22:06:55;;;;;;;11.13;0.73;;;;;;;8.84;74.79;100423.69;10200168;28;20159;-61
2023/01/11 22:11:59;;;;;;;8.82;1.20;;;;;;;8.95;74.89;100426.09;10200281;28;20059;-61
2023/01/11 22:17:00;;;;;;;14.85;1.80;;;;;;;9.09;74.49;100432.66;10197050;28;20518;-62
2023/01/11 22:22:05;;;;;;;14.32;1.00;;;;;;;9.12;74.64;100440.34;10210930;28;20122;-62
2023/01/11 22:27:06;;;;;;;10.13;1.33;;;;;;;9.09;74.65;100435.31;10206947;29;20090;-61
2023/01/11 22:32:08;;;;;;;4.72;0.65;;;;;;;9.06;74.45;100423.09;10206675;28;20495;-62
2023/01/11 22:37:09;;;;;;;8.98;1.02;;;;;;;9.06;74.48;100406.16;10201710;28;20052;-59
2023/01/11 22:42:11;;;;;;;9.15;1.35;;;;;;;8.97;74.74;100409.84;10206862;28;20510;-61
2023/01/11 22:47:12;;;;;;;6.03;0.50;;;;;;;8.94;74.47;100413.66;10195836;28;20151;-60
2023/01/11 22:52:13;;;;;;;8.45;0.90;;;;;;;8.93;74.67;100417.38;10193920;28;20055;-61
2023/01/11 22:57:15;;;;;;;8.98;1.55;;;;;;;8.95;74.51;100426.09;10192500;29;20139;-60
2023/01/11 23:02:16;;;;;;;7.32;0.75;;;;;;;8.99;74.33;100419.38;10202636;28;20082;-62
2023/01/11 23:07:18;;;;;;;7.22;1.08;;;;;;;8.95;74.39;100423.41;10211005;28;20130;-59
2023/01/11 23:17:39;;;;;;;10.32;0.90;;;;;;;9.07;74.43;100416.72;10188702;28;20103;-59
2023/01/11 23:22:41;;;;;;;7.47;0.70;;;;;;;9.11;74.16;100409.19;10199088;28;20621;-60
2023/01/11 23:27:42;;;;;;;7.93;0.70;;;;;;;9.11;74.58;100391.25;10197312;28;20118;-60
2023/01/11 23:32:43;;;;;;;12.10;1.42;;;;;;;9.23;74.50;100397.13;10204568;28;20079;-61
2023/01/11 23:37:45;;;;;;;12.98;1.35;;;;;;;9.34;74.34;100390.63;10203494;28;20090;-61
2023/01/11 23:42:46;;;;;;;11.65;1.83;;;;;;;9.42;74.00;100379.03;10198855;28;20616;-62
2023/01/11 23:47:48;;;;;;;8.10;1.77;;;;;;;9.51;74.22;100378.03;10217503;28;20085;-62
2023/01/11 23:52:49;;;;;;;14.60;1.88;;;;;;;9.63;74.04;100381.19;10191988;28;20446;-61
2023/01/11 23:58:07;;;;;;;15.10;1.50;;;;;;;9.73;73.75;100369.28;10195843;28;20075;-60
